sensor_id;sensor_type;location;lat;lon;timestamp;temperature;humidity
796;DHT22;381;48.770;9.188;2024-02-28T00:02:59;10.60;96.70
796;DHT22;381;48.770;9.188;2024-02-28T00:08:03;10.60;96.80
796;DHT22;381;48.770;9.188;2024-02-28T00:13:06;10.60;96.60
796;DHT22;381;48.770;9.188;2024-02-28T00:18:08;10.60;96.50
796;DHT22;381;48.770;9.188;2024-02-28T00:23:12;10.60;96.60
796;DHT22;381;48.770;9.188;2024-02-28T00:28:15;10.60;96.70
796;DHT22;381;48.770;9.188;2024-02-28T00:33:17;10.60;96.50
796;DHT22;381;48.770;9.188;2024-02-28T00:38:21;10.50;96.70
796;DHT22;381;48.770;9.188;2024-02-28T00:43:23;10.60;96.20
796;DHT22;381;48.770;9.188;2024-02-28T00:48:26;10.60;96.20
796;DHT22;381;48.770;9.188;2024-02-28T00:53:30;10.60;96.20
796;DHT22;381;48.770;9.188;2024-02-28T00:58:32;10.60;96.20
796;DHT22;381;48.770;9.188;2024-02-28T01:03:34;10.50;96.10
796;DHT22;381;48.770;9.188;2024-02-28T01:08:38;10.50;96.00
796;DHT22;381;48.770;9.188;2024-02-28T01:13:41;10.50;96.10
796;DHT22;381;48.770;9.188;2024-02-28T01:18:43;10.50;96.00
796;DHT22;381;48.770;9.188;2024-02-28T01:23:47;10.40;95.90
796;DHT22;381;48.770;9.188;2024-02-28T01:28:50;10.50;95.90
796;DHT22;381;48.770;9.188;2024-02-28T01:33:52;10.50;95.80
796;DHT22;381;48.770;9.188;2024-02-28T01:38:56;10.40;95.90
796;DHT22;381;48.770;9.188;2024-02-28T01:43:58;10.40;95.90
796;DHT22;381;48.770;9.188;2024-02-28T01:49:01;10.40;95.80
796;DHT22;381;48.770;9.188;2024-02-28T01:54:05;10.40;95.90
796;DHT22;381;48.770;9.188;2024-02-28T01:59:10;10.40;95.90
796;DHT22;381;48.770;9.188;2024-02-28T02:04:12;10.40;95.90
796;DHT22;381;48.770;9.188;2024-02-28T02:09:16;10.40;95.90
796;DHT22;381;48.770;9.188;2024-02-28T02:14:19;10.30;96.10
796;DHT22;381;48.770;9.188;2024-02-28T02:19:21;10.30;96.10
796;DHT22;381;48.770;9.188;2024-02-28T02:24:25;10.30;96.10
796;DHT22;381;48.770;9.188;2024-02-28T02:29:27;10.30;95.80
796;DHT22;381;48.770;9.188;2024-02-28T02:34:29;10.30;95.80
796;DHT22;381;48.770;9.188;2024-02-28T02:39:33;10.30;96.10
796;DHT22;381;48.770;9.188;2024-02-28T02:44:36;10.30;96.30
796;DHT22;381;48.770;9.188;2024-02-28T02:49:38;10.30;96.50
796;DHT22;381;48.770;9.188;2024-02-28T02:54:42;10.30;96.60
796;DHT22;381;48.770;9.188;2024-02-28T02:59:44;10.30;96.60
796;DHT22;381;48.770;9.188;2024-02-28T03:04:46;10.30;96.70
796;DHT22;381;48.770;9.188;2024-02-28T03:09:50;10.30;96.70
796;DHT22;381;48.770;9.188;2024-02-28T03:14:52;10.30;96.80
796;DHT22;381;48.770;9.188;2024-02-28T03:19:55;10.20;96.80
796;DHT22;381;48.770;9.188;2024-02-28T03:24:59;10.20;96.70
796;DHT22;381;48.770;9.188;2024-02-28T03:30:01;10.20;96.80
796;DHT22;381;48.770;9.188;2024-02-28T03:35:04;10.20;96.60
796;DHT22;381;48.770;9.188;2024-02-28T03:40:11;10.20;96.60
796;DHT22;381;48.770;9.188;2024-02-28T03:45:15;10.20;96.50
796;DHT22;381;48.770;9.188;2024-02-28T03:50:18;10.10;96.50
796;DHT22;381;48.770;9.188;2024-02-28T03:55:22;10.10;96.60
796;DHT22;381;48.770;9.188;2024-02-28T04:00:24;10.10;96.50
796;DHT22;381;48.770;9.188;2024-02-28T04:05:29;10.10;96.60
796;DHT22;381;48.770;9.188;2024-02-28T04:10:33;10.10;96.70
796;DHT22;381;48.770;9.188;2024-02-28T04:15:35;10.10;96.70
796;DHT22;381;48.770;9.188;2024-02-28T04:20:39;10.00;96.50
796;DHT22;381;48.770;9.188;2024-02-28T04:25:43;10.00;96.70
796;DHT22;381;48.770;9.188;2024-02-28T04:30:45;10.00;96.60
796;DHT22;381;48.770;9.188;2024-02-28T04:35:47;10.00;96.60
796;DHT22;381;48.770;9.188;2024-02-28T04:40:51;10.00;96.60
796;DHT22;381;48.770;9.188;2024-02-28T04:45:53;10.00;96.60
796;DHT22;381;48.770;9.188;2024-02-28T04:50:55;10.00;96.50
796;DHT22;381;48.770;9.188;2024-02-28T04:55:59;9.90;97.10
796;DHT22;381;48.770;9.188;2024-02-28T05:01:02;9.90;97.20
796;DHT22;381;48.770;9.188;2024-02-28T05:06:05;9.90;97.20
796;DHT22;381;48.770;9.188;2024-02-28T05:11:08;9.90;97.40
796;DHT22;381;48.770;9.188;2024-02-28T05:16:14;9.80;97.00
796;DHT22;381;48.770;9.188;2024-02-28T05:21:16;9.80;97.00
796;DHT22;381;48.770;9.188;2024-02-28T05:26:20;9.80;97.00
796;DHT22;381;48.770;9.188;2024-02-28T05:31:23;9.70;97.10
796;DHT22;381;48.770;9.188;2024-02-28T05:36:27;9.70;97.20
796;DHT22;381;48.770;9.188;2024-02-28T05:41:31;9.70;97.20
796;DHT22;381;48.770;9.188;2024-02-28T05:46:33;9.70;97.20
796;DHT22;381;48.770;9.188;2024-02-28T05:51:37;9.70;97.30
796;DHT22;381;48.770;9.188;2024-02-28T05:56:41;9.70;97.20
796;DHT22;381;48.770;9.188;2024-02-28T06:01:44;9.70;97.20
796;DHT22;381;48.770;9.188;2024-02-28T06:06:46;9.70;97.20
796;DHT22;381;48.770;9.188;2024-02-28T06:11:51;9.70;97.30
796;DHT22;381;48.770;9.188;2024-02-28T06:16:53;9.70;97.10
796;DHT22;381;48.770;9.188;2024-02-28T06:21:56;9.60;97.10
796;DHT22;381;48.770;9.188;2024-02-28T06:26:59;9.60;97.20
796;DHT22;381;48.770;9.188;2024-02-28T06:32:02;9.60;97.10
796;DHT22;381;48.770;9.188;2024-02-28T06:37:05;9.60;97.20
796;DHT22;381;48.770;9.188;2024-02-28T06:42:08;9.60;97.10
796;DHT22;381;48.770;9.188;2024-02-28T06:47:11;9.60;97.10
796;DHT22;381;48.770;9.188;2024-02-28T06:52:13;9.60;97.20
796;DHT22;381;48.770;9.188;2024-02-28T06:57:17;9.60;96.70
796;DHT22;381;48.770;9.188;2024-02-28T07:02:19;9.60;97.10
796;DHT22;381;48.770;9.188;2024-02-28T07:07:22;9.60;97.20
796;DHT22;381;48.770;9.188;2024-02-28T07:12:26;9.60;97.30
796;DHT22;381;48.770;9.188;2024-02-28T07:17:28;9.70;97.30
796;DHT22;381;48.770;9.188;2024-02-28T07:22:30;9.70;97.10
796;DHT22;381;48.770;9.188;2024-02-28T07:27:34;9.70;97.00
796;DHT22;381;48.770;9.188;2024-02-28T07:32:37;9.70;97.20
796;DHT22;381;48.770;9.188;2024-02-28T07:37:39;9.80;97.10
796;DHT22;381;48.770;9.188;2024-02-28T07:42:43;9.80;97.30
796;DHT22;381;48.770;9.188;2024-02-28T07:47:45;9.80;97.10
796;DHT22;381;48.770;9.188;2024-02-28T07:52:47;9.80;97.10
796;DHT22;381;48.770;9.188;2024-02-28T07:57:52;9.80;97.00
796;DHT22;381;48.770;9.188;2024-02-28T08:02:55;9.90;97.20
796;DHT22;381;48.770;9.188;2024-02-28T08:07:57;9.90;97.10
796;DHT22;381;48.770;9.188;2024-02-28T08:13:01;9.90;97.10
796;DHT22;381;48.770;9.188;2024-02-28T08:18:04;10.00;96.50
796;DHT22;381;48.770;9.188;2024-02-28T08:23:06;10.00;96.40
796;DHT22;381;48.770;9.188;2024-02-28T08:28:10;10.00;96.40
796;DHT22;381;48.770;9.188;2024-02-28T08:33:12;10.00;96.30
796;DHT22;381;48.770;9.188;2024-02-28T08:38:15;10.00;96.30
796;DHT22;381;48.770;9.188;2024-02-28T08:43:19;10.00;96.40
796;DHT22;381;48.770;9.188;2024-02-28T08:48:21;10.00;96.50
796;DHT22;381;48.770;9.188;2024-02-28T08:53:24;10.00;96.50
796;DHT22;381;48.770;9.188;2024-02-28T08:58:27;10.00;96.00
796;DHT22;381;48.770;9.188;2024-02-28T09:03:30;10.00;96.20
796;DHT22;381;48.770;9.188;2024-02-28T09:08:32;10.00;95.80
796;DHT22;381;48.770;9.188;2024-02-28T09:13:36;10.00;96.10
796;DHT22;381;48.770;9.188;2024-02-28T09:18:38;10.00;96.30
796;DHT22;381;48.770;9.188;2024-02-28T09:23:41;10.10;96.40
796;DHT22;381;48.770;9.188;2024-02-28T09:28:44;10.20;96.40
796;DHT22;381;48.770;9.188;2024-02-28T09:33:47;10.20;96.20
796;DHT22;381;48.770;9.188;2024-02-28T09:38:50;10.30;95.40
796;DHT22;381;48.770;9.188;2024-02-28T09:43:54;10.30;95.70
796;DHT22;381;48.770;9.188;2024-02-28T09:48:57;10.30;95.60
796;DHT22;381;48.770;9.188;2024-02-28T09:54:00;10.40;95.70
796;DHT22;381;48.770;9.188;2024-02-28T09:59:05;10.50;95.80
796;DHT22;381;48.770;9.188;2024-02-28T10:04:10;10.50;95.20
796;DHT22;381;48.770;9.188;2024-02-28T10:09:14;10.60;95.20
796;DHT22;381;48.770;9.188;2024-02-28T10:14:18;10.60;95.00
796;DHT22;381;48.770;9.188;2024-02-28T10:19:21;10.60;94.50
796;DHT22;381;48.770;9.188;2024-02-28T10:24:24;10.60;94.60
796;DHT22;381;48.770;9.188;2024-02-28T10:29:28;10.60;94.20
796;DHT22;381;48.770;9.188;2024-02-28T10:34:31;10.50;93.60
796;DHT22;381;48.770;9.188;2024-02-28T10:39:34;10.30;94.00
796;DHT22;381;48.770;9.188;2024-02-28T10:44:39;10.30;93.80
796;DHT22;381;48.770;9.188;2024-02-28T10:49:44;10.40;94.30
796;DHT22;381;48.770;9.188;2024-02-28T10:54:48;10.40;94.60
796;DHT22;381;48.770;9.188;2024-02-28T10:59:55;10.50;94.60
796;DHT22;381;48.770;9.188;2024-02-28T11:04:58;10.50;94.60
796;DHT22;381;48.770;9.188;2024-02-28T11:10:05;10.60;94.10
796;DHT22;381;48.770;9.188;2024-02-28T11:15:16;10.60;94.10
796;DHT22;381;48.770;9.188;2024-02-28T11:20:19;10.60;94.20
796;DHT22;381;48.770;9.188;2024-02-28T11:25:23;10.70;94.50
796;DHT22;381;48.770;9.188;2024-02-28T11:30:27;10.70;94.30
796;DHT22;381;48.770;9.188;2024-02-28T11:35:30;10.70;94.10
796;DHT22;381;48.770;9.188;2024-02-28T11:40:32;10.80;94.30
796;DHT22;381;48.770;9.188;2024-02-28T11:45:40;10.80;94.00
796;DHT22;381;48.770;9.188;2024-02-28T11:50:44;10.80;94.30
796;DHT22;381;48.770;9.188;2024-02-28T11:55:46;10.80;94.30
796;DHT22;381;48.770;9.188;2024-02-28T12:00:51;10.80;94.30
796;DHT22;381;48.770;9.188;2024-02-28T12:05:55;10.80;94.20
796;DHT22;381;48.770;9.188;2024-02-28T12:11:06;10.80;94.30
796;DHT22;381;48.770;9.188;2024-02-28T12:16:10;10.80;94.40
796;DHT22;381;48.770;9.188;2024-02-28T12:21:13;10.70;94.50
796;DHT22;381;48.770;9.188;2024-02-28T12:26:16;10.80;94.40
796;DHT22;381;48.770;9.188;2024-02-28T12:31:21;10.80;94.30
796;DHT22;381;48.770;9.188;2024-02-28T12:36:24;10.80;94.50
796;DHT22;381;48.770;9.188;2024-02-28T12:41:27;10.80;94.50
796;DHT22;381;48.770;9.188;2024-02-28T12:46:31;10.70;94.40
796;DHT22;381;48.770;9.188;2024-02-28T12:51:39;10.80;94.30
796;DHT22;381;48.770;9.188;2024-02-28T12:56:41;10.80;94.30
796;DHT22;381;48.770;9.188;2024-02-28T13:01:45;10.80;94.40
796;DHT22;381;48.770;9.188;2024-02-28T13:06:49;10.80;94.30
796;DHT22;381;48.770;9.188;2024-02-28T13:11:52;10.80;94.10
796;DHT22;381;48.770;9.188;2024-02-28T13:16:56;10.90;93.80
796;DHT22;381;48.770;9.188;2024-02-28T13:21:59;10.80;93.90
796;DHT22;381;48.770;9.188;2024-02-28T13:27:02;10.80;93.90
796;DHT22;381;48.770;9.188;2024-02-28T13:32:07;10.70;94.00
796;DHT22;381;48.770;9.188;2024-02-28T13:37:09;10.70;93.70
796;DHT22;381;48.770;9.188;2024-02-28T13:42:13;10.70;93.50
796;DHT22;381;48.770;9.188;2024-02-28T13:47:16;10.60;93.80
796;DHT22;381;48.770;9.188;2024-02-28T13:52:19;10.50;93.50
796;DHT22;381;48.770;9.188;2024-02-28T13:57:21;10.40;93.80
796;DHT22;381;48.770;9.188;2024-02-28T14:02:25;10.30;94.20
796;DHT22;381;48.770;9.188;2024-02-28T14:07:27;10.30;94.00
796;DHT22;381;48.770;9.188;2024-02-28T14:12:29;10.30;93.80
796;DHT22;381;48.770;9.188;2024-02-28T14:17:33;10.10;94.00
796;DHT22;381;48.770;9.188;2024-02-28T14:22:36;10.00;94.30
796;DHT22;381;48.770;9.188;2024-02-28T14:27:42;10.10;94.70
796;DHT22;381;48.770;9.188;2024-02-28T14:32:46;10.10;94.80
796;DHT22;381;48.770;9.188;2024-02-28T14:37:50;10.10;94.90
796;DHT22;381;48.770;9.188;2024-02-28T14:42:53;10.20;94.90
796;DHT22;381;48.770;9.188;2024-02-28T14:47:57;10.30;95.00
796;DHT22;381;48.770;9.188;2024-02-28T14:52:59;10.40;95.00
796;DHT22;381;48.770;9.188;2024-02-28T14:58:02;10.40;94.60
796;DHT22;381;48.770;9.188;2024-02-28T15:03:06;10.30;94.30
796;DHT22;381;48.770;9.188;2024-02-28T15:08:10;10.20;94.30
796;DHT22;381;48.770;9.188;2024-02-28T15:13:12;10.20;94.40
796;DHT22;381;48.770;9.188;2024-02-28T15:18:16;10.20;94.70
796;DHT22;381;48.770;9.188;2024-02-28T15:23:18;10.20;94.70
796;DHT22;381;48.770;9.188;2024-02-28T15:28:22;10.20;94.80
796;DHT22;381;48.770;9.188;2024-02-28T15:33:29;10.10;95.00
796;DHT22;381;48.770;9.188;2024-02-28T15:38:31;10.20;94.50
796;DHT22;381;48.770;9.188;2024-02-28T15:43:33;10.20;94.50
796;DHT22;381;48.770;9.188;2024-02-28T15:48:37;10.20;94.40
796;DHT22;381;48.770;9.188;2024-02-28T15:53:40;10.10;94.70
796;DHT22;381;48.770;9.188;2024-02-28T15:58:42;10.00;95.10
796;DHT22;381;48.770;9.188;2024-02-28T16:03:46;10.00;94.60
796;DHT22;381;48.770;9.188;2024-02-28T16:08:48;10.00;94.30
796;DHT22;381;48.770;9.188;2024-02-28T16:13:52;9.90;95.10
796;DHT22;381;48.770;9.188;2024-02-28T16:18:56;9.80;95.60
796;DHT22;381;48.770;9.188;2024-02-28T16:23:58;9.80;95.60
796;DHT22;381;48.770;9.188;2024-02-28T16:29:01;9.90;95.50
796;DHT22;381;48.770;9.188;2024-02-28T16:34:05;9.90;95.00
796;DHT22;381;48.770;9.188;2024-02-28T16:39:07;9.80;95.30
796;DHT22;381;48.770;9.188;2024-02-28T16:44:10;9.90;95.20
796;DHT22;381;48.770;9.188;2024-02-28T16:49:13;9.90;95.30
796;DHT22;381;48.770;9.188;2024-02-28T16:54:17;9.90;95.30
796;DHT22;381;48.770;9.188;2024-02-28T16:59:20;9.80;95.30
796;DHT22;381;48.770;9.188;2024-02-28T17:04:24;9.90;95.20
796;DHT22;381;48.770;9.188;2024-02-28T17:09:28;9.80;95.20
796;DHT22;381;48.770;9.188;2024-02-28T17:14:31;9.90;95.20
796;DHT22;381;48.770;9.188;2024-02-28T17:19:35;9.90;95.10
796;DHT22;381;48.770;9.188;2024-02-28T17:24:37;9.90;94.80
796;DHT22;381;48.770;9.188;2024-02-28T17:29:41;9.90;95.30
796;DHT22;381;48.770;9.188;2024-02-28T17:34:47;9.90;94.70
796;DHT22;381;48.770;9.188;2024-02-28T17:39:52;9.90;94.90
796;DHT22;381;48.770;9.188;2024-02-28T17:44:54;9.90;94.80
796;DHT22;381;48.770;9.188;2024-02-28T17:49:58;9.90;95.10
796;DHT22;381;48.770;9.188;2024-02-28T17:55:01;9.90;94.80
796;DHT22;381;48.770;9.188;2024-02-28T18:00:04;9.90;94.90
796;DHT22;381;48.770;9.188;2024-02-28T18:05:09;9.90;94.90
796;DHT22;381;48.770;9.188;2024-02-28T18:10:11;9.90;94.70
796;DHT22;381;48.770;9.188;2024-02-28T18:15:16;9.80;94.80
796;DHT22;381;48.770;9.188;2024-02-28T18:20:20;9.90;94.80
796;DHT22;381;48.770;9.188;2024-02-28T18:25:22;9.80;94.80
796;DHT22;381;48.770;9.188;2024-02-28T18:30:24;9.80;94.90
796;DHT22;381;48.770;9.188;2024-02-28T18:35:28;9.80;94.80
796;DHT22;381;48.770;9.188;2024-02-28T18:40:32;9.80;95.10
796;DHT22;381;48.770;9.188;2024-02-28T18:45:35;9.80;94.90
796;DHT22;381;48.770;9.188;2024-02-28T18:50:38;9.80;95.00
796;DHT22;381;48.770;9.188;2024-02-28T18:55:41;9.90;94.80
796;DHT22;381;48.770;9.188;2024-02-28T19:00:43;9.90;95.00
796;DHT22;381;48.770;9.188;2024-02-28T19:05:49;9.90;94.70
796;DHT22;381;48.770;9.188;2024-02-28T19:10:51;9.90;95.00
796;DHT22;381;48.770;9.188;2024-02-28T19:15:54;9.90;94.90
796;DHT22;381;48.770;9.188;2024-02-28T19:20:58;9.90;94.70
796;DHT22;381;48.770;9.188;2024-02-28T19:26:01;9.90;94.80
796;DHT22;381;48.770;9.188;2024-02-28T19:31:03;9.90;94.90
796;DHT22;381;48.770;9.188;2024-02-28T19:36:08;9.90;95.10
796;DHT22;381;48.770;9.188;2024-02-28T19:41:10;9.80;95.10
796;DHT22;381;48.770;9.188;2024-02-28T19:46:13;9.80;95.10
796;DHT22;381;48.770;9.188;2024-02-28T19:51:17;9.90;95.00
796;DHT22;381;48.770;9.188;2024-02-28T19:56:19;9.80;95.10
796;DHT22;381;48.770;9.188;2024-02-28T20:01:26;9.80;95.10
796;DHT22;381;48.770;9.188;2024-02-28T20:06:30;9.80;95.00
796;DHT22;381;48.770;9.188;2024-02-28T20:11:33;9.80;95.00
796;DHT22;381;48.770;9.188;2024-02-28T20:16:35;9.80;95.10
796;DHT22;381;48.770;9.188;2024-02-28T20:21:39;9.70;95.10
796;DHT22;381;48.770;9.188;2024-02-28T20:26:42;9.70;95.30
796;DHT22;381;48.770;9.188;2024-02-28T20:31:44;9.60;95.10
796;DHT22;381;48.770;9.188;2024-02-28T20:36:48;9.60;95.40
796;DHT22;381;48.770;9.188;2024-02-28T20:41:51;9.50;95.40
796;DHT22;381;48.770;9.188;2024-02-28T20:46:53;9.50;95.50
796;DHT22;381;48.770;9.188;2024-02-28T20:51:59;9.50;95.70
796;DHT22;381;48.770;9.188;2024-02-28T20:57:01;9.40;95.70
796;DHT22;381;48.770;9.188;2024-02-28T21:02:03;9.40;95.60
796;DHT22;381;48.770;9.188;2024-02-28T21:07:07;9.30;95.60
796;DHT22;381;48.770;9.188;2024-02-28T21:12:10;9.20;95.80
796;DHT22;381;48.770;9.188;2024-02-28T21:17:14;9.20;95.90
796;DHT22;381;48.770;9.188;2024-02-28T21:22:18;9.10;96.10
796;DHT22;381;48.770;9.188;2024-02-28T21:27:21;9.00;95.90
796;DHT22;381;48.770;9.188;2024-02-28T21:32:23;8.90;96.20
796;DHT22;381;48.770;9.188;2024-02-28T21:37:28;8.80;96.20
796;DHT22;381;48.770;9.188;2024-02-28T21:42:30;8.80;96.20
796;DHT22;381;48.770;9.188;2024-02-28T21:47:32;8.70;96.30
796;DHT22;381;48.770;9.188;2024-02-28T21:52:36;8.50;96.50
796;DHT22;381;48.770;9.188;2024-02-28T21:57:39;8.40;96.90
796;DHT22;381;48.770;9.188;2024-02-28T22:02:41;8.20;96.70
796;DHT22;381;48.770;9.188;2024-02-28T22:07:45;8.20;96.50
796;DHT22;381;48.770;9.188;2024-02-28T22:12:47;8.00;96.60
796;DHT22;381;48.770;9.188;2024-02-28T22:17:50;7.90;96.50
796;DHT22;381;48.770;9.188;2024-02-28T22:22:55;7.80;96.70
796;DHT22;381;48.770;9.188;2024-02-28T22:27:58;7.60;96.90
796;DHT22;381;48.770;9.188;2024-02-28T22:33:00;7.60;96.90
796;DHT22;381;48.770;9.188;2024-02-28T22:38:04;7.50;96.90
796;DHT22;381;48.770;9.188;2024-02-28T22:43:06;7.30;97.00
796;DHT22;381;48.770;9.188;2024-02-28T22:48:10;7.20;97.10
796;DHT22;381;48.770;9.188;2024-02-28T22:58:16;7.00;97.00
796;DHT22;381;48.770;9.188;2024-02-28T23:03:18;7.00;97.50
796;DHT22;381;48.770;9.188;2024-02-28T23:08:22;6.90;97.50
796;DHT22;381;48.770;9.188;2024-02-28T23:13:24;6.90;97.70
796;DHT22;381;48.770;9.188;2024-02-28T23:18:27;6.80;97.60
796;DHT22;381;48.770;9.188;2024-02-28T23:23:30;6.70;97.70
796;DHT22;381;48.770;9.188;2024-02-28T23:28:33;6.70;97.70
796;DHT22;381;48.770;9.188;2024-02-28T23:33:35;6.70;97.80
796;DHT22;381;48.770;9.188;2024-02-28T23:38:39;6.60;98.00
796;DHT22;381;48.770;9.188;2024-02-28T23:43:41;6.60;97.90
796;DHT22;381;48.770;9.188;2024-02-28T23:48:44;6.50;98.00
796;DHT22;381;48.770;9.188;2024-02-28T23:53:47;6.50;98.10
796;DHT22;381;48.770;9.188;2024-02-28T23:58:50;6.40;98.60
